• Join FlightAware (Why Join?)
  • Login
  • US Flag 
01:25AM EDT


 

Airport Tracker/Info


-or-


 

Live Flight TrackerFlight Track Log ✈ SKW2988 ✈ 04-May-2013 ✈ KFAT - KPHX

Flight Track Log - Related Links

Times and Time Zones

All times are in EDT time to prevent confusion due to time zone crossing. See the SKW2988 flight status page for this flight to view local times or setup timezone preferences in your user account.

Time Position Orientation Groundspeed Altitude Reporting Facility
EDT Latitude Longitude Course Direction KTS MPH feet Rate Location/Type
10:19PM 36.7936 -119.7553 255° West 152 175 1,600  Level Oakland Center
10:20PM 36.7814 -119.8139 255° West 214 246 4,600 3,120 Climbing Oakland Center
10:21PM 36.7175 -119.8056 174° South 239 275 7,900 3,000 Climbing Oakland Center
10:22PM 36.6525 -119.7661 154° Southeast 259 298 10,700 2,340 Climbing Oakland Center
10:23PM 36.5764 -119.7222 155° Southeast 297 342 12,700 2,280 Climbing Oakland Center
10:24PM 36.4939 -119.6750 155° Southeast 322 371 15,400 2,340 Climbing Oakland Center
10:25PM 36.4078 -119.6250 155° Southeast 339 390 17,500 2,280 Climbing Oakland Center
10:26PM 36.3175 -119.5719 155° Southeast 356 410 20,000 2,220 Climbing Oakland Center
10:27PM 36.2256 -119.5189 155° Southeast 363 418 22,000 1,740 Climbing Oakland Center
10:28PM 36.1294 -119.4633 155° Southeast 378 435 23,600 1,500 Climbing Oakland Center
10:29PM 36.0358 -119.3958 150° Southeast 392 451 25,100 1,380 Climbing Oakland Center
10:30PM 35.9842 -119.2722 117° Southeast 399 459 26,500 1,260 Climbing Oakland Center
10:31PM 35.9311 -119.1397 116° Southeast 412 474 27,800 1,080 Climbing Oakland Center
10:32PM 35.8639 -118.9764 117° Southeast 434 499 28,800 900 Climbing Oakland Center
10:33PM 35.8069 -118.8350 116° Southeast 451 519 29,700 840 Climbing Oakland Center
10:34PM 35.7481 -118.6928 117° Southeast 460 529 30,500 720 Climbing Oakland Center
10:35PM 35.7153 -118.6075 115° Southeast 459 528 30,900 780 Climbing Los Angeles Center
10:36PM 35.6514 -118.4600 118° Southeast 470 541 31,800 1,020 Climbing Los Angeles Center
10:37PM 35.5908 -118.3161 117° Southeast 476 548 33,000 540 Climbing Los Angeles Center
10:38PM 35.5317 -118.1728 117° Southeast 472 543 33,000  Level Los Angeles Center
10:39PM 35.4700 -118.0261 117° Southeast 480 552 33,000  Level Los Angeles Center
10:40PM 35.4092 -117.8806 117° Southeast 480 552 33,000  Level Los Angeles Center
10:41PM 35.3475 -117.7347 117° Southeast 479 551 33,000  Level Los Angeles Center
10:42PM 35.2861 -117.5894 117° Southeast 477 549 33,000  Level Los Angeles Center
10:43PM 35.2236 -117.4428 118° Southeast 477 549 33,000  Level Los Angeles Center
10:44PM 35.1611 -117.2992 118° Southeast 469 540 33,000  Level Los Angeles Center
10:45PM 35.1003 -117.1575 118° Southeast 466 536 33,000  Level Los Angeles Center
10:46PM 35.0392 -117.0164 118° Southeast 468 539 33,000  Level Los Angeles Center
10:47PM 34.9783 -116.8758 118° Southeast 469 540 33,000  Level Los Angeles Center
10:48PM 34.9392 -116.7225 107° East 472 543 33,000  Level Los Angeles Center
10:49PM 34.9622 -116.5283 82° East 486 559 33,000  Level Los Angeles Center
10:50PM 34.9972 -116.3725 75° East 481 554 33,000  Level Los Angeles Center
10:51PM 35.0386 -116.1819 75° East 485 558 33,000  Level Los Angeles Center
10:52PM 35.0758 -116.0228 74° East 489 563 33,000  Level Los Angeles Center
10:53PM 35.1094 -115.8661 75° East 483 556 33,000  Level Los Angeles Center
10:54PM 35.1433 -115.7086 75° East 482 555 33,000  Level Los Angeles Center
10:55PM 35.1781 -115.5519 75° East 481 554 33,000  Level Los Angeles Center
10:56PM 35.2081 -115.3981 77° East 471 542 33,000  Level Los Angeles Center
10:57PM 35.2478 -115.2100 75° East 474 545 33,000  Level Los Angeles Center
10:58PM 35.2817 -115.0536 75° East 476 548 33,000  Level Los Angeles Center
10:59PM 35.2889 -114.8894 87° East 477 549 33,000  Level Los Angeles Center
11:00PM 35.2928 -114.7283 88° East 474 545 33,000  Level Los Angeles Center
11:01PM 35.2953 -114.5669 89° East 476 548 33,000 -240 Level Los Angeles Center
11:03PM 35.2953 -114.4061 90° East 475 547 32,500 -540 Descending Los Angeles Center
11:04PM 35.2983 -114.2061 89° East 489 563 31,800 -660 Descending Los Angeles Center
11:05PM 35.3000 -114.0394 89° East 491 565 31,200 -600 Descending Los Angeles Center
11:06PM 35.3022 -113.8603 89° East 493 567 30,600 -600 Descending Los Angeles Center
11:07PM 35.3028 -113.6939 90° East 492 566 30,000 -600 Descending Los Angeles Center
11:08PM 35.2864 -113.5372 97° East 474 545 29,400 -480 Descending Los Angeles Center
11:09PM 35.2167 -113.4103 124° Southeast 457 526 29,000 -180 Descending Los Angeles Center
11:10PM 35.1222 -113.2381 124° Southeast 442 509 29,000  Level Los Angeles Center
11:11PM 35.0572 -113.1175 123° Southeast 434 499 29,000  Level Los Angeles Center
11:12PM 34.9892 -112.9947 124° Southeast 440 506 29,000 -120 Level Los Angeles Center
11:13PM 34.9181 -112.8667 124° Southeast 455 524 28,800 -600 Descending Los Angeles Center
11:14PM 34.8467 -112.7392 124° Southeast 458 527 27,800 -1,260 Descending Albuquerque Center
11:15PM 34.7647 -112.5928 124° Southeast 444 511 26,300 -1,440 Descending Albuquerque Center
11:16PM 34.6969 -112.4753 125° Southeast 433 498 24,900 -1,560 Descending Albuquerque Center
11:17PM 34.6106 -112.3914 141° Southeast 401 461 23,200 -1,800 Descending Albuquerque Center
11:18PM 34.5233 -112.3069 141° Southeast 386 444 21,300 -1,860 Descending Albuquerque Center
11:19PM 34.4403 -112.2303 143° Southeast 378 435 19,500 -1,740 Descending Albuquerque Center
11:20PM 34.3453 -112.2044 167° South 350 403 17,800 -1,560 Descending Albuquerque Center
11:21PM 34.2525 -112.1797 168° South 346 398 16,400 -1,440 Descending Albuquerque Center
11:22PM 34.1544 -112.1550 168° South 360 414 15,000 -1,440 Descending Albuquerque Center
11:23PM 34.0550 -112.1289 168° South 369 425 13,600 -1,380 Descending Albuquerque Center
11:24PM 33.9603 -112.1047 168° South 355 409 12,200 -1,320 Descending Albuquerque Center
11:25PM 33.8678 -112.0819 168° South 345 397 11,000 -1,020 Descending Albuquerque Center
11:26PM 33.7797 -112.0589 168° South 330 380 10,200 -720 Descending Albuquerque Center
11:27PM 33.6986 -112.0428 171° South 291 335 9,600 -480 Descending Albuquerque Center
11:28PM 33.6275 -112.0303 172° South 257 296 9,300 -660 Descending Albuquerque Center
11:29PM 33.5539 -112.0019 162° South 235 270 8,300 -960 Descending Albuquerque Center
11:30PM 33.5300 -111.9342 113° Southeast 244 281 7,400 -1,140 Descending Albuquerque Center
11:31PM 33.5264 -111.8564 93° East 237 273 6,100 -1,200 Descending Albuquerque Center
11:32PM 33.4725 -111.8386 165° South 213 245 5,000 -1,560 Descending Albuquerque Center
11:33PM 33.4422 -111.8847 232° Southwest 195 224 3,000 -1,440 Descending Albuquerque Center
11:34PM 33.4408 -111.9406 268° West 172 198 2,100 -840 Descending Albuquerque Center
11:35PM 33.4403 -111.9844 269° West 132 152 1,400 -720 Descending Albuquerque Center
11:37PM 33.4333 -112.0000 270° West  Level FlightAware Approximate